Time;durP1;ratioP1;P1;durP2;ratioP2;P2;SDS_P1;SDS_P2;PMS_P1;PMS_P2;Temp;Humidity;BMP_temperature;BMP_pressure;BME280_temperature;BME280_humidity;BME280_pressure;Samples;Min_cycle;Max_cycle;Signal;HPM_P1;HPM_P2
2022/11/21 00:02:00;;;;;;;18.55;10.65;;;26.70;90.20;;;;;;1854882;75;22096;-73
2022/11/21 00:04:32;;;;;;;15.40;8.73;;;26.80;90.30;;;;;;1847634;75;21134;-74
2022/11/21 00:07:03;;;;;;;16.10;10.00;;;26.80;90.30;;;;;;1883601;75;21156;-75
2022/11/21 00:09:35;;;;;;;15.08;9.60;;;26.80;90.30;;;;;;1894963;75;21587;-75
2022/11/21 00:12:06;;;;;;;18.82;12.45;;;26.80;90.20;;;;;;1875376;75;21210;-75
2022/11/21 00:14:38;;;;;;;16.65;10.48;;;26.90;90.00;;;;;;1858111;75;21232;-75
2022/11/21 00:17:09;;;;;;;18.87;10.93;;;27.00;90.00;;;;;;1863716;75;21102;-74
2022/11/21 00:19:40;;;;;;;15.72;11.08;;;27.00;90.10;;;;;;1872446;75;21569;-75
2022/11/21 00:22:13;;;;;;;18.12;10.70;;;27.00;90.10;;;;;;1865674;75;21718;-76
2022/11/21 00:24:44;;;;;;;17.75;11.10;;;27.10;90.10;;;;;;1875814;75;21206;-76
2022/11/21 00:27:36;;;;;;;16.70;9.73;;;27.10;90.00;;;;;;1840624;76;21099;-75
2022/11/21 00:30:09;;;;;;;16.40;8.95;;;27.20;90.00;;;;;;1800127;79;21170;-77
2022/11/21 00:32:40;;;;;;;13.08;7.85;;;27.20;90.00;;;;;;1743675;81;21665;-75
2022/11/21 00:35:11;;;;;;;12.40;8.13;;;27.30;90.00;;;;;;1807111;78;21181;-74
2022/11/21 00:37:42;;;;;;;16.23;7.90;;;27.30;89.40;;;;;;1800123;78;21371;-76
2022/11/21 00:40:13;;;;;;;16.05;8.25;;;27.30;89.30;;;;;;1806921;78;21181;-76
2022/11/21 00:42:44;;;;;;;14.10;8.60;;;27.30;88.80;;;;;;1809776;77;21736;-76
2022/11/21 00:45:16;;;;;;;17.07;8.10;;;27.30;88.70;;;;;;1807295;78;21204;-75
2022/11/21 00:47:48;;;;;;;18.02;8.70;;;27.40;88.90;;;;;;1771902;79;21301;-76
2022/11/21 00:50:19;;;;;;;16.17;9.13;;;27.40;88.50;;;;;;1731725;81;21273;-76
2022/11/21 00:52:51;;;;;;;14.18;10.50;;;27.40;88.90;;;;;;1791707;77;21182;-75
2022/11/21 00:55:22;;;;;;;14.50;8.60;;;27.30;88.50;;;;;;1757396;79;21156;-76
2022/11/21 00:57:53;;;;;;;14.28;8.40;;;27.30;88.60;;;;;;1759474;80;21192;-76
2022/11/21 01:00:25;;;;;;;11.05;6.95;;;27.40;88.60;;;;;;1768561;80;21759;-75
2022/11/21 01:03:14;;;;;;;9.80;6.92;;;27.40;88.20;;;;;;1770651;80;21668;-76
2022/11/21 01:05:46;;;;;;;10.80;7.28;;;27.40;87.90;;;;;;1827157;77;21173;-76
2022/11/21 01:08:17;;;;;;;14.80;7.60;;;27.50;87.50;;;;;;1816254;77;21237;-76
2022/11/21 01:10:48;;;;;;;13.35;7.72;;;27.60;87.40;;;;;;1809050;77;21280;-76
2022/11/21 01:13:19;;;;;;;9.95;7.25;;;27.60;87.00;;;;;;1772393;79;21185;-75
2022/11/21 01:15:50;;;;;;;12.53;7.12;;;27.60;86.90;;;;;;1829124;77;21099;-76
2022/11/21 01:18:21;;;;;;;14.00;6.90;;;27.70;86.70;;;;;;1801054;78;21212;-77
2022/11/21 01:20:52;;;;;;;28.45;9.15;;;27.70;86.30;;;;;;1880338;76;21222;-74
2022/11/21 01:23:23;;;;;;;37.63;8.98;;;27.80;86.10;;;;;;1788864;79;21180;-75
2022/11/21 01:25:55;;;;;;;14.20;6.40;;;27.80;86.00;;;;;;1773301;79;21134;-76
2022/11/21 01:28:26;;;;;;;12.40;6.08;;;27.80;85.30;;;;;;1813492;78;21297;-75
2022/11/21 01:31:12;;;;;;;8.90;5.72;;;27.80;85.10;;;;;;1805948;78;21178;-75
2022/11/21 01:33:45;;;;;;;10.98;5.80;;;27.80;85.10;;;;;;1742930;78;21269;-77
2022/11/21 01:36:18;;;;;;;10.13;5.53;;;27.80;85.40;;;;;;1830141;77;21235;-77
2022/11/21 01:38:51;;;;;;;9.15;5.30;;;27.80;85.20;;;;;;1878776;76;21465;-75
2022/11/21 01:41:25;;;;;;;11.57;6.28;;;27.80;84.20;;;;;;1859388;76;21671;-75
2022/11/21 01:43:57;;;;;;;8.28;5.65;;;27.80;84.40;;;;;;1857443;76;21160;-76
2022/11/21 01:46:29;;;;;;;11.08;5.53;;;27.80;84.10;;;;;;1846297;76;21775;-74
2022/11/21 01:49:06;;;;;;;11.45;6.00;;;27.90;85.20;;;;;;1857037;76;21121;-74
2022/11/21 01:51:55;;;;;;;10.10;6.17;;;27.90;84.10;;;;;;1863038;75;21169;-73
2022/11/21 01:54:29;;;;;;;14.40;6.45;;;28.00;84.20;;;;;;1861365;74;21156;-74
2022/11/21 01:57:06;;;;;;;11.68;6.33;;;28.00;84.00;;;;;;1874298;75;21755;-73
2022/11/21 01:59:39;;;;;;;10.08;6.05;;;28.00;84.10;;;;;;1832937;76;21209;-74
2022/11/21 02:02:16;;;;;;;10.10;6.35;;;28.10;84.40;;;;;;1861051;76;21129;-72
2022/11/21 02:04:48;;;;;;;13.08;7.55;;;28.10;83.70;;;;;;1849022;76;21129;-73
2022/11/21 02:07:21;;;;;;;11.78;6.83;;;28.20;83.60;;;;;;1857617;76;21680;-73
2022/11/21 02:09:57;;;;;;;10.95;6.50;;;28.20;83.70;;;;;;1875862;75;21740;-74
2022/11/21 02:12:45;;;;;;;6.42;4.92;;;28.30;83.00;;;;;;1860107;76;21134;-72
2022/11/21 02:15:20;;;;;;;8.33;4.75;;;28.30;82.10;;;;;;1861184;75;21694;-74
2022/11/21 02:17:52;;;;;;;9.30;5.50;;;28.30;81.30;;;;;;1819768;77;21244;-73
2022/11/21 02:20:25;;;;;;;10.38;5.17;;;28.40;81.90;;;;;;1854085;76;21245;-73
2022/11/21 02:23:11;;;;;;;8.90;5.62;;;28.50;81.10;;;;;;1877727;76;21149;-71
2022/11/21 02:25:44;;;;;;;7.67;5.03;;;28.50;81.00;;;;;;1857407;76;21123;-71
2022/11/21 02:28:18;;;;;;;7.58;5.20;;;28.60;81.10;;;;;;1877885;75;21671;-71
2022/11/21 02:30:49;;;;;;;10.08;5.80;;;28.60;80.80;;;;;;1880285;75;21611;-72
2022/11/21 02:33:20;;;;;;;9.53;5.53;;;28.70;79.70;;;;;;1826732;77;21294;-72
2022/11/21 02:35:58;;;;;;;9.85;5.28;;;28.70;79.20;;;;;;1859808;76;21138;-71
2022/11/21 02:38:34;;;;;;;7.37;5.20;;;28.70;79.20;;;;;;1806637;77;21207;-71
2022/11/21 02:41:14;;;;;;;11.40;7.12;;;28.80;79.10;;;;;;1785700;78;21227;-71
2022/11/21 02:43:47;;;;;;;8.45;5.87;;;28.80;79.00;;;;;;1781757;78;21196;-72
2022/11/21 02:46:18;;;;;;;9.05;5.65;;;28.80;79.50;;;;;;1779172;78;21108;-72
2022/11/21 02:48:49;;;;;;;8.80;6.33;;;28.80;79.50;;;;;;1802676;78;21146;-72
2022/11/21 02:51:21;;;;;;;9.73;6.00;;;28.90;79.50;;;;;;1858602;76;21166;-73
2022/11/21 02:53:52;;;;;;;9.88;6.17;;;28.90;78.30;;;;;;1862905;76;21604;-72
2022/11/21 02:56:23;;;;;;;9.20;5.53;;;28.90;78.40;;;;;;1826833;77;21264;-71
2022/11/21 02:58:54;;;;;;;9.15;5.30;;;29.00;78.40;;;;;;1805036;78;21106;-71
2022/11/21 03:01:25;;;;;;;9.90;5.50;;;29.10;78.30;;;;;;1822815;77;21134;-71
2022/11/21 03:03:56;;;;;;;12.53;6.25;;;29.10;78.20;;;;;;1829451;77;21239;-71
2022/11/21 03:06:27;;;;;;;9.88;5.50;;;29.20;78.60;;;;;;1840933;77;21508;-71
2022/11/21 03:08:58;;;;;;;8.78;5.72;;;29.20;78.20;;;;;;1783838;79;21163;-70
2022/11/21 03:11:29;;;;;;;8.35;5.95;;;29.30;78.10;;;;;;1831890;76;21174;-71
2022/11/21 03:14:00;;;;;;;9.70;6.25;;;29.30;78.00;;;;;;1875725;75;21228;-71
2022/11/21 03:16:31;;;;;;;10.88;5.97;;;29.30;78.10;;;;;;1860294;76;21090;-71
2022/11/21 03:19:03;;;;;;;9.45;5.33;;;29.30;77.40;;;;;;1858473;76;21256;-71
2022/11/21 03:21:34;;;;;;;11.53;5.90;;;29.40;77.60;;;;;;1833573;75;21164;-72
2022/11/21 03:24:05;;;;;;;10.25;5.80;;;29.30;76.90;;;;;;1816511;77;21796;-72
2022/11/21 03:26:36;;;;;;;8.28;6.12;;;29.30;77.40;;;;;;1869049;76;21118;-71
2022/11/21 03:29:08;;;;;;;9.50;5.90;;;29.40;77.30;;;;;;1857014;75;21131;-72
2022/11/21 03:31:39;;;;;;;11.12;5.85;;;29.40;78.00;;;;;;1857453;76;21131;-73
2022/11/21 03:34:10;;;;;;;9.63;6.67;;;29.40;76.80;;;;;;1870149;75;21126;-73
2022/11/21 03:36:41;;;;;;;9.55;6.35;;;29.50;76.80;;;;;;1872253;75;21146;-71
2022/11/21 03:39:13;;;;;;;9.35;5.78;;;29.50;76.70;;;;;;1861132;76;21154;-73
2022/11/21 03:41:44;;;;;;;16.30;6.72;;;29.70;76.80;;;;;;1864696;75;21159;-73
2022/11/21 03:44:16;;;;;;;12.05;5.80;;;29.80;75.50;;;;;;1843499;76;21078;-73
2022/11/21 03:46:48;;;;;;;7.53;5.78;;;29.90;75.50;;;;;;1803789;77;21576;-73
2022/11/21 03:49:19;;;;;;;11.03;5.35;;;30.10;74.70;;;;;;1794678;78;21224;-73
2022/11/21 03:51:50;;;;;;;8.08;5.03;;;30.30;73.70;;;;;;1791655;78;21609;-72
2022/11/21 03:54:21;;;;;;;11.00;5.58;;;30.40;73.10;;;;;;1819908;78;21160;-73
2022/11/21 03:56:55;;;;;;;8.48;5.42;;;30.50;72.90;;;;;;1774487;78;21656;-73
2022/11/21 03:59:26;;;;;;;9.73;5.62;;;30.50;72.00;;;;;;1771830;79;21266;-71
2022/11/21 04:01:57;;;;;;;10.23;5.65;;;30.60;72.10;;;;;;1804179;77;21133;-72
2022/11/21 04:04:28;;;;;;;13.70;6.37;;;30.60;72.00;;;;;;1829553;76;21686;-72
2022/11/21 04:06:59;;;;;;;10.25;6.78;;;30.70;72.40;;;;;;1800766;78;21622;-72
2022/11/21 04:09:30;;;;;;;7.72;5.50;;;30.80;71.90;;;;;;1819828;77;21261;-74
2022/11/21 04:12:02;;;;;;;8.90;5.85;;;30.80;71.70;;;;;;1880124;75;21134;-74
2022/11/21 04:14:34;;;;;;;8.30;5.47;;;30.90;72.50;;;;;;1861929;75;21186;-73
2022/11/21 04:17:05;;;;;;;10.08;5.62;;;30.90;72.30;;;;;;1848670;76;21075;-72
2022/11/21 04:19:48;;;;;;;7.90;5.53;;;31.00;71.80;;;;;;1815469;76;21881;-73
2022/11/21 04:22:19;;;;;;;8.88;5.95;;;31.00;71.80;;;;;;1894263;74;21127;-74
2022/11/21 04:24:50;;;;;;;11.85;5.80;;;31.10;70.60;;;;;;1900188;74;21098;-73
2022/11/21 04:27:21;;;;;;;10.23;5.72;;;31.20;71.30;;;;;;1912151;73;21130;-73
2022/11/21 04:29:52;;;;;;;8.53;5.60;;;31.30;70.90;;;;;;1903507;75;21153;-73
2022/11/21 04:32:23;;;;;;;7.83;5.50;;;31.40;70.70;;;;;;1868174;75;21149;-75
2022/11/21 04:34:54;;;;;;;10.23;5.58;;;31.40;69.50;;;;;;1837160;77;21164;-74
2022/11/21 04:37:25;;;;;;;7.90;4.95;;;31.40;69.70;;;;;;1850582;76;21175;-73
2022/11/21 04:39:56;;;;;;;7.55;5.10;;;31.40;68.90;;;;;;1841975;77;21209;-72
2022/11/21 04:42:27;;;;;;;9.65;5.12;;;31.40;68.20;;;;;;1855518;75;21231;-72
2022/11/21 04:44:59;;;;;;;6.90;5.00;;;31.40;68.10;;;;;;1907920;75;21686;-75
2022/11/21 04:47:30;;;;;;;10.32;5.55;;;31.30;68.90;;;;;;1909317;74;21257;-76
2022/11/21 04:50:01;;;;;;;7.03;4.87;;;31.30;68.90;;;;;;1915913;74;21189;-74
2022/11/21 04:52:33;;;;;;;7.78;5.58;;;31.20;69.10;;;;;;1914600;73;21240;-74
2022/11/21 04:55:05;;;;;;;9.78;5.40;;;31.20;68.60;;;;;;1905049;75;21293;-74
2022/11/21 04:57:36;;;;;;;7.55;5.12;;;31.10;69.50;;;;;;1887328;74;21218;-73
2022/11/21 05:00:08;;;;;;;5.55;4.28;;;31.10;68.10;;;;;;1864309;76;21161;-76
2022/11/21 05:02:39;;;;;;;6.62;4.83;;;31.10;66.60;;;;;;1916126;73;21184;-73
2022/11/21 05:05:10;;;;;;;6.87;4.30;;;31.20;67.30;;;;;;1905362;74;21197;-75
2022/11/21 05:07:41;;;;;;;7.83;4.60;;;31.20;66.60;;;;;;1903576;73;21123;-75
2022/11/21 05:10:13;;;;;;;7.30;4.33;;;31.30;65.80;;;;;;1833185;76;21637;-76
2022/11/21 05:15:33;;;;;;;9.08;4.35;;;31.50;66.90;;;;;;1911001;73;21687;-76
2022/11/21 05:20:56;;;;;;;6.03;4.92;;;31.80;65.70;;;;;;1786998;79;21722;-75
2022/11/21 05:23:30;;;;;;;8.43;5.12;;;32.00;65.60;;;;;;1777715;77;21772;-75
2022/11/21 05:26:19;;;;;;;6.83;4.25;;;32.20;64.20;;;;;;1757551;80;21692;-75
2022/11/21 05:28:51;;;;;;;9.88;5.17;;;32.30;64.40;;;;;;1790061;77;21460;-75
2022/11/21 05:31:23;;;;;;;7.55;4.70;;;32.40;63.80;;;;;;1803888;79;21182;-75
2022/11/21 05:33:55;;;;;;;8.70;5.92;;;32.40;63.30;;;;;;1793566;77;21161;-75
2022/11/21 05:36:26;;;;;;;8.33;5.08;;;32.50;63.00;;;;;;1790906;78;21186;-75
2022/11/21 05:38:57;;;;;;;8.95;5.25;;;32.60;64.60;;;;;;1790657;78;21107;-74
2022/11/21 05:41:28;;;;;;;8.60;5.65;;;32.70;63.00;;;;;;1780365;77;21126;-74
2022/11/21 05:44:00;;;;;;;9.75;5.83;;;32.70;63.20;;;;;;1790241;77;21504;-74
2022/11/21 05:46:31;;;;;;;7.62;5.40;;;32.70;62.60;;;;;;1780234;79;21158;-74
2022/11/21 05:49:02;;;;;;;8.10;4.90;;;32.80;62.80;;;;;;1776775;78;21210;-75
2022/11/21 05:51:34;;;;;;;8.70;5.28;;;32.80;62.70;;;;;;1769375;79;21704;-75
2022/11/21 05:54:05;;;;;;;8.33;4.95;;;32.90;61.90;;;;;;1769558;78;21240;-75
2022/11/21 05:56:36;;;;;;;7.08;5.10;;;32.90;62.00;;;;;;1740140;80;21172;-75
2022/11/21 05:59:08;;;;;;;7.22;4.62;;;32.90;61.70;;;;;;1760729;79;21180;-74
2022/11/21 06:04:28;;;;;;;6.78;4.65;;;32.90;60.20;;;;;;1780442;78;21189;-74
2022/11/21 06:06:59;;;;;;;6.40;4.35;;;32.90;61.10;;;;;;1785253;78;21143;-74
2022/11/21 06:09:30;;;;;;;5.75;3.90;;;32.90;59.90;;;;;;1770613;79;21153;-74
2022/11/21 06:12:01;;;;;;;6.53;4.83;;;32.90;60.60;;;;;;1787641;78;21496;-74
2022/11/21 06:14:33;;;;;;;4.45;3.65;;;32.80;60.30;;;;;;1783612;79;21153;-75
2022/11/21 06:17:05;;;;;;;4.45;3.40;;;32.80;59.40;;;;;;1778901;78;21179;-73
2022/11/21 06:19:36;;;;;;;7.00;3.60;;;32.80;59.90;;;;;;1782252;79;21568;-75
2022/11/21 06:22:07;;;;;;;6.95;3.90;;;32.80;59.60;;;;;;1795408;79;21103;-74
2022/11/21 06:24:37;;;;;;;6.03;4.00;;;32.80;60.10;;;;;;1765756;79;21250;-74
2022/11/21 06:27:09;;;;;;;8.58;4.30;;;32.90;61.00;;;;;;1781849;79;21599;-74
2022/11/21 06:29:40;;;;;;;6.55;3.87;;;32.90;59.70;;;;;;1779334;78;21083;-74
2022/11/21 06:32:11;;;;;;;5.75;4.37;;;32.90;60.00;;;;;;1788139;78;21204;-74
2022/11/21 06:34:45;;;;;;;6.90;4.25;;;32.90;59.20;;;;;;1795561;78;21168;-73
2022/11/21 06:37:16;;;;;;;7.80;4.12;;;32.90;59.80;;;;;;1821820;78;21166;-74
2022/11/21 06:39:47;;;;;;;6.42;4.37;;;32.90;59.20;;;;;;1779726;79;21147;-74
2022/11/21 06:42:18;;;;;;;7.10;4.75;;;32.90;59.60;;;;;;1774393;78;21641;-74
2022/11/21 06:44:49;;;;;;;7.35;5.12;;;32.90;60.10;;;;;;1799892;78;21222;-75
2022/11/21 06:47:20;;;;;;;7.55;4.65;;;32.90;60.30;;;;;;1793984;78;21126;-76
2022/11/21 06:49:51;;;;;;;7.67;4.00;;;32.90;60.60;;;;;;1800135;79;21091;-73
2022/11/21 06:52:22;;;;;;;5.62;4.37;;;32.90;59.40;;;;;;1783422;79;21162;-74
2022/11/21 06:54:53;;;;;;;9.73;4.30;;;32.90;59.50;;;;;;1791256;79;21731;-74
2022/11/21 06:57:24;;;;;;;5.97;3.98;;;32.90;59.50;;;;;;1775763;78;21122;-74
2022/11/21 06:59:56;;;;;;;6.37;4.15;;;32.90;59.40;;;;;;1787536;78;21182;-75
2022/11/21 07:02:27;;;;;;;6.65;4.08;;;32.90;59.20;;;;;;1790655;79;21218;-76
2022/11/21 07:04:59;;;;;;;5.78;4.40;;;33.00;59.40;;;;;;1797213;78;21166;-76
2022/11/21 07:07:34;;;;;;;7.87;4.75;;;33.00;60.00;;;;;;1798515;77;21244;-75
2022/11/21 07:10:06;;;;;;;10.45;4.50;;;33.00;59.50;;;;;;1778244;79;21156;-74
2022/11/21 07:15:25;;;;;;;8.78;5.00;;;33.00;59.40;;;;;;1769120;80;21196;-76
2022/11/21 07:17:58;;;;;;;6.95;4.92;;;33.00;59.50;;;;;;1769684;80;21167;-76
2022/11/21 07:20:29;;;;;;;8.13;4.65;;;33.00;60.20;;;;;;1773771;78;21284;-76
2022/11/21 07:23:03;;;;;;;8.13;4.72;;;33.00;59.50;;;;;;1794121;78;21232;-75
2022/11/21 07:25:34;;;;;;;8.95;4.33;;;33.00;59.50;;;;;;1802975;78;21128;-75
2022/11/21 07:28:06;;;;;;;5.17;3.85;;;32.90;59.50;;;;;;1723544;81;21209;-74
2022/11/21 07:30:38;;;;;;;6.50;4.08;;;32.90;59.20;;;;;;1770674;78;21212;-73
2022/11/21 07:33:09;;;;;;;7.35;4.00;;;32.90;59.80;;;;;;1771936;79;21099;-74
2022/11/21 07:35:42;;;;;;;6.40;4.37;;;32.90;59.60;;;;;;1763950;79;21223;-74
2022/11/21 07:38:17;;;;;;;6.95;4.37;;;32.80;59.80;;;;;;1786497;77;21658;-75
2022/11/21 07:40:48;;;;;;;5.95;4.45;;;32.80;59.40;;;;;;1766499;79;21179;-73
2022/11/21 07:43:19;;;;;;;5.60;4.75;;;32.80;59.40;;;;;;1782682;77;21122;-75
2022/11/21 07:45:50;;;;;;;6.22;4.28;;;32.80;59.90;;;;;;1779497;79;21134;-76
2022/11/21 07:48:21;;;;;;;7.03;4.70;;;32.80;59.40;;;;;;1789169;77;21157;-74
2022/11/21 07:50:52;;;;;;;9.35;4.53;;;32.90;59.30;;;;;;1793076;77;21177;-75
2022/11/21 07:53:23;;;;;;;5.92;4.70;;;32.90;59.40;;;;;;1779152;78;21150;-74
2022/11/21 07:56:02;;;;;;;9.55;4.87;;;32.90;59.70;;;;;;1772419;77;21162;-74
2022/11/21 07:58:32;;;;;;;6.72;4.80;;;32.90;59.50;;;;;;1787763;78;21083;-75
2022/11/21 08:01:07;;;;;;;6.60;4.33;;;32.90;59.70;;;;;;1796011;78;21132;-76
2022/11/21 08:03:38;;;;;;;4.35;3.95;;;32.90;59.10;;;;;;1780187;79;21119;-76
2022/11/21 08:06:11;;;;;;;8.83;4.37;;;32.80;58.80;;;;;;1790383;78;21550;-77
2022/11/21 08:08:43;;;;;;;7.12;4.33;;;32.80;59.30;;;;;;1782263;78;21257;-75
2022/11/21 08:11:16;;;;;;;9.55;4.55;;;32.80;59.50;;;;;;1782299;78;21151;-75
2022/11/21 08:13:48;;;;;;;6.20;4.12;;;32.80;59.00;;;;;;1779861;78;21816;-73
2022/11/21 08:16:21;;;;;;;6.87;3.90;;;32.90;59.00;;;;;;1790526;78;21632;-75
2022/11/21 08:18:52;;;;;;;6.65;4.62;;;32.90;58.80;;;;;;1776590;78;21248;-75
2022/11/21 08:21:23;;;;;;;8.50;4.58;;;32.90;59.30;;;;;;1786263;77;21713;-75
2022/11/21 08:23:54;;;;;;;6.85;4.17;;;32.80;58.80;;;;;;1783522;79;21088;-74
2022/11/21 08:26:25;;;;;;;5.90;4.62;;;32.70;59.40;;;;;;1775018;77;21198;-73
2022/11/21 08:28:56;;;;;;;10.28;5.08;;;32.60;59.50;;;;;;1780989;79;21184;-74
2022/11/21 08:31:28;;;;;;;8.75;5.08;;;32.60;59.80;;;;;;1780538;78;21172;-73
2022/11/21 08:33:59;;;;;;;5.97;4.92;;;32.60;60.40;;;;;;1765045;79;21194;-74
2022/11/21 08:36:30;;;;;;;13.13;5.53;;;32.60;60.60;;;;;;1779656;79;21638;-74
2022/11/21 08:39:01;;;;;;;8.48;5.85;;;32.60;61.00;;;;;;1787168;78;21260;-73
2022/11/21 08:44:21;;;;;;;9.28;5.45;;;32.50;60.50;;;;;;1775526;79;21146;-73
2022/11/21 08:46:52;;;;;;;9.68;6.17;;;32.50;60.70;;;;;;1773414;79;21170;-73
2022/11/21 08:49:23;;;;;;;9.38;5.40;;;32.50;61.00;;;;;;1744704;79;21194;-73
2022/11/21 08:51:54;;;;;;;8.33;5.28;;;32.50;60.40;;;;;;1705024;83;21318;-73
2022/11/21 08:54:25;;;;;;;9.58;5.95;;;32.40;60.00;;;;;;1778912;79;21245;-75
2022/11/21 08:56:57;;;;;;;7.55;5.55;;;32.40;60.70;;;;;;1779460;79;21678;-74
2022/11/21 08:59:28;;;;;;;10.80;5.87;;;32.40;60.80;;;;;;1757887;79;21119;-74
2022/11/21 09:01:59;;;;;;;8.70;4.92;;;32.20;60.50;;;;;;1735861;80;21122;-74
2022/11/21 09:04:31;;;;;;;9.03;5.70;;;32.20;60.50;;;;;;1777444;79;21184;-73
2022/11/21 09:07:03;;;;;;;9.93;5.85;;;32.20;60.90;;;;;;1770520;79;21160;-72
2022/11/21 09:09:35;;;;;;;10.60;5.40;;;32.20;60.90;;;;;;1774107;79;21260;-73
2022/11/21 09:12:09;;;;;;;6.50;5.20;;;32.20;61.00;;;;;;1770504;80;21908;-73
2022/11/21 09:20:20;;;;;;;10.20;5.45;;;32.10;60.90;;;;;;1770967;78;21213;-72
2022/11/21 09:22:51;;;;;;;7.58;5.80;;;32.10;61.20;;;;;;1740311;81;21515;-74
2022/11/21 09:25:23;;;;;;;6.92;5.12;;;32.00;61.20;;;;;;1775932;79;21256;-74
2022/11/21 09:27:54;;;;;;;6.83;5.62;;;32.00;61.60;;;;;;1767572;79;21154;-73
2022/11/21 09:30:25;;;;;;;10.68;5.62;;;31.90;61.90;;;;;;1775370;77;21194;-73
2022/11/21 09:33:01;;;;;;;8.45;5.78;;;32.00;62.10;;;;;;1761249;79;21142;-75
2022/11/21 09:35:33;;;;;;;7.40;5.33;;;31.90;62.00;;;;;;1741188;81;21220;-74
2022/11/21 09:38:04;;;;;;;7.25;5.58;;;31.90;62.30;;;;;;1751096;79;21716;-74
2022/11/21 09:40:36;;;;;;;7.70;5.30;;;31.80;62.40;;;;;;1733930;81;21196;-74
2022/11/21 09:43:15;;;;;;;7.03;5.53;;;31.80;62.60;;;;;;1778152;79;21173;-74
2022/11/21 09:45:51;;;;;;;10.48;8.13;;;31.80;62.70;;;;;;1733179;79;21265;-75
2022/11/21 09:48:27;;;;;;;7.23;5.97;;;31.70;62.80;;;;;;1792424;79;21209;-76
2022/11/21 09:51:01;;;;;;;12.25;7.33;;;31.70;63.10;;;;;;1779335;78;21172;-74
2022/11/21 09:53:37;;;;;;;13.10;11.15;;;31.70;63.20;;;;;;1780414;79;21170;-74
2022/11/21 09:56:10;;;;;;;9.38;6.62;;;31.60;63.30;;;;;;1751426;80;21185;-73
2022/11/21 09:58:44;;;;;;;11.40;6.90;;;31.60;63.30;;;;;;1740281;79;21232;-74
2022/11/21 10:01:17;;;;;;;9.53;6.20;;;31.60;64.10;;;;;;1775663;78;21290;-73
2022/11/21 10:03:51;;;;;;;9.18;6.30;;;31.60;63.90;;;;;;1766809;79;21645;-74
2022/11/21 10:06:24;;;;;;;8.68;7.05;;;31.50;64.00;;;;;;1768763;79;21134;-74
2022/11/21 10:09:14;;;;;;;13.75;6.42;;;31.50;64.30;;;;;;1769459;79;21107;-74
2022/11/21 10:15:17;;;;;;;8.50;6.08;;;31.40;64.40;;;;;;1759950;80;22393;-75
2022/11/21 10:17:57;;;;;;;8.35;5.55;;;31.40;64.80;;;;;;1772475;78;21190;-73
2022/11/21 10:20:47;;;;;;;11.03;6.20;;;31.40;64.90;;;;;;1768215;79;21205;-75
2022/11/21 10:23:55;;;;;;;11.00;7.30;;;31.40;64.90;;;;;;1757731;79;21218;-76
2022/11/21 10:26:53;;;;;;;9.40;5.90;;;31.40;64.80;;;;;;1770998;78;21558;-74
2022/11/21 10:29:29;;;;;;;13.38;6.92;;;31.30;64.80;;;;;;1782361;78;21172;-74
2022/11/21 10:32:03;;;;;;;10.55;6.60;;;31.30;65.00;;;;;;1789289;77;21195;-73
2022/11/21 10:34:37;;;;;;;13.30;6.95;;;31.20;65.10;;;;;;1768588;78;21174;-72
2022/11/21 10:37:22;;;;;;;17.52;7.83;;;31.20;64.90;;;;;;1743724;80;21176;-74
2022/11/21 10:39:54;;;;;;;26.52;9.80;;;31.20;65.20;;;;;;1740114;80;21180;-72
2022/11/21 10:42:39;;;;;;;12.90;7.45;;;31.20;65.50;;;;;;1768202;79;21146;-72
2022/11/21 10:45:22;;;;;;;30.40;11.68;;;31.20;65.50;;;;;;1761875;80;21202;-73
2022/11/21 10:47:58;;;;;;;20.92;8.38;;;31.10;65.50;;;;;;1760790;79;21211;-73
2022/11/21 10:50:44;;;;;;;15.53;8.30;;;31.10;65.60;;;;;;1775321;78;21218;-72
2022/11/21 10:56:25;;;;;;;16.85;9.23;;;31.10;65.60;;;;;;1749307;78;21261;-74
2022/11/21 10:59:01;;;;;;;13.00;8.28;;;31.10;65.80;;;;;;1733924;81;21191;-74
2022/11/21 11:01:34;;;;;;;16.12;8.03;;;31.00;65.60;;;;;;1718854;81;21693;-73
2022/11/21 11:04:13;;;;;;;16.23;9.95;;;31.00;65.60;;;;;;1781779;79;21150;-72
2022/11/21 11:06:47;;;;;;;15.15;10.45;;;31.00;65.80;;;;;;1768367;79;21151;-74
2022/11/21 11:09:29;;;;;;;18.67;9.18;;;31.00;67.40;;;;;;1774927;78;21208;-80
2022/11/21 11:15:23;;;;;;;18.67;9.43;;;30.90;67.10;;;;;;1776166;79;21159;-89
2022/11/21 11:18:02;;;;;;;14.23;8.18;;;30.90;68.20;;;;;;1765906;78;21112;-86
2022/11/21 11:20:44;;;;;;;20.95;10.78;;;30.90;67.60;;;;;;1761348;79;21261;-87
2022/11/21 11:23:25;;;;;;;18.75;12.70;;;30.80;67.80;;;;;;1752009;78;21159;-89
2022/11/21 11:25:58;;;;;;;15.93;8.23;;;30.80;68.00;;;;;;1765988;81;21123;-86
2022/11/21 11:28:37;;;;;;;17.07;9.15;;;30.80;68.10;;;;;;1769315;78;21315;-88
2022/11/21 11:31:09;;;;;;;18.40;10.25;;;30.80;68.20;;;;;;1770200;78;21150;-88
2022/11/21 11:33:42;;;;;;;15.03;9.18;;;30.70;68.00;;;;;;1783601;78;21256;-86
2022/11/21 11:36:28;;;;;;;16.37;8.70;;;30.70;68.20;;;;;;1738550;79;21145;-85
2022/11/21 11:39:01;;;;;;;17.07;9.60;;;30.70;68.30;;;;;;1772876;79;21134;-88
2022/11/21 11:47:29;;;;;;;13.72;9.05;;;30.70;69.20;;;;;;1741348;81;21164;-86
2022/11/21 11:47:31;;;;;;;19.80;9.20;;;30.60;68.20;;;;;;1777262;79;21244;-86
2022/11/21 11:50:14;;;;;;;17.52;9.35;;;30.60;68.30;;;;;;1780833;78;21185;-85
2022/11/21 11:53:15;;;;;;;15.95;9.15;;;30.60;68.40;;;;;;1770741;80;21242;-85
2022/11/21 11:56:07;;;;;;;14.85;8.73;;;30.50;68.40;;;;;;1758999;79;21333;-85
2022/11/21 11:58:59;;;;;;;15.40;8.38;;;30.50;68.30;;;;;;1749536;80;21193;-85
2022/11/21 12:01:42;;;;;;;13.48;9.08;;;30.50;68.40;;;;;;1762747;78;21871;-85
2022/11/21 12:04:33;;;;;;;13.62;8.40;;;30.50;68.50;;;;;;1774359;81;21162;-85
2022/11/21 12:07:31;;;;;;;16.25;8.15;;;30.50;68.50;;;;;;1759060;81;21159;-86
2022/11/21 12:12:05;;;;;;;15.32;8.63;;;30.50;68.20;;;;;;1767131;80;21177;-83
2022/11/21 12:13:19;;;;;;;17.62;8.65;;;30.50;68.30;;;;;;1832737;74;21158;-85
2022/11/21 12:16:01;;;;;;;14.43;9.00;;;30.40;68.10;;;;;;1877473;76;21105;-83
2022/11/21 12:19:05;;;;;;;16.00;9.35;;;30.40;68.30;;;;;;1854565;76;21176;-86
2022/11/21 12:22:05;;;;;;;15.20;8.75;;;30.30;68.50;;;;;;1837076;75;21147;-86
2022/11/21 12:25:15;;;;;;;15.25;9.30;;;30.30;68.60;;;;;;1814128;76;21162;-85
2022/11/21 12:27:53;;;;;;;15.78;8.60;;;30.30;68.60;;;;;;1774101;78;21119;-85
2022/11/21 12:30:51;;;;;;;15.13;9.05;;;30.30;68.70;;;;;;1796145;77;21630;-84
2022/11/21 12:33:25;;;;;;;14.43;8.50;;;30.30;68.70;;;;;;1855091;76;21139;-83
2022/11/21 12:36:03;;;;;;;12.53;8.40;;;30.30;68.30;;;;;;1859096;75;21181;-84
2022/11/21 12:39:21;;;;;;;14.40;8.95;;;30.30;68.20;;;;;;1868844;75;21175;-86
2022/11/21 12:45:37;;;;;;;14.80;9.05;;;30.20;68.00;;;;;;1873549;73;21040;-86
2022/11/21 12:54:59;;;;;;;14.35;9.33;;;30.10;68.10;;;;;;1878563;76;21092;-84
2022/11/21 12:57:41;;;;;;;15.32;10.25;;;30.10;68.30;;;;;;1876555;76;21067;-83
2022/11/21 13:00:35;;;;;;;16.45;9.88;;;30.10;68.30;;;;;;1858222;75;21081;-85
2022/11/21 13:03:33;;;;;;;15.43;9.38;;;30.10;68.50;;;;;;1849770;77;21178;-87
2022/11/21 13:06:17;;;;;;;18.30;9.95;;;30.00;68.50;;;;;;1858493;77;21142;-82
2022/11/21 13:09:01;;;;;;;20.57;9.90;;;30.00;68.40;;;;;;1876126;74;21145;-84
2022/11/21 13:12:09;;;;;;;13.90;9.08;;;30.00;68.40;;;;;;1873220;75;21076;-82
2022/11/21 13:14:48;;;;;;;16.42;10.13;;;30.00;68.80;;;;;;1873680;75;21142;-85
2022/11/21 13:17:34;;;;;;;18.70;9.78;;;30.00;68.60;;;;;;1858192;75;21305;-85
2022/11/21 13:20:15;;;;;;;16.82;9.68;;;29.90;68.60;;;;;;1857678;76;21079;-86
2022/11/21 13:22:52;;;;;;;15.90;9.10;;;29.90;68.60;;;;;;1876671;73;21082;-85
2022/11/21 13:25:45;;;;;;;16.48;8.75;;;29.90;68.40;;;;;;1852790;74;21657;-84
2022/11/21 13:28:25;;;;;;;14.55;8.23;;;29.90;68.40;;;;;;1867473;76;21283;-83
2022/11/21 13:31:24;;;;;;;17.37;9.30;;;29.90;68.20;;;;;;1849208;76;21120;-84
2022/11/21 13:33:56;;;;;;;13.80;8.78;;;29.90;68.20;;;;;;1841378;76;21127;-82
2022/11/21 13:36:33;;;;;;;15.03;9.55;;;29.90;68.40;;;;;;1863083;76;21115;-84
2022/11/21 13:39:19;;;;;;;15.30;9.10;;;29.90;68.40;;;;;;1860222;75;21107;-85
2022/11/21 13:44:43;;;;;;;18.05;8.55;;;29.90;68.70;;;;;;1871232;76;21035;-86
2022/11/21 13:47:28;;;;;;;12.65;8.60;;;29.90;69.60;;;;;;1875920;76;21126;-86
2022/11/21 13:50:19;;;;;;;18.32;9.33;;;29.90;68.80;;;;;;1874215;75;21193;-83
2022/11/21 13:53:24;;;;;;;13.15;8.65;;;29.80;68.40;;;;;;1862316;76;21153;-84
2022/11/21 13:56:04;;;;;;;15.35;9.25;;;29.80;68.50;;;;;;1856253;75;21186;-84
2022/11/21 13:58:38;;;;;;;16.12;9.45;;;29.80;68.40;;;;;;1871480;75;21430;-84
2022/11/21 14:01:41;;;;;;;14.10;8.23;;;29.70;68.60;;;;;;1867683;75;21118;-83
2022/11/21 14:04:40;;;;;;;15.13;9.05;;;29.70;68.70;;;;;;1835485;75;21205;-85
2022/11/21 14:07:27;;;;;;;13.78;8.45;;;29.70;68.70;;;;;;1851901;76;21198;-83
2022/11/21 14:10:01;;;;;;;13.70;8.63;;;29.70;68.90;;;;;;1834099;77;21123;-85